• Join FlightAware (Why Join?)
  • Login
  • US Flag 
12:51PM EDT


 

Airport Tracker/Info


-or-


 

Live Flight TrackerFlight Track Log ✈ B-18725 ✈ 01-May-2013 ✈ KJFK - KSEA

Flight Track Log - Related Links

Times and Time Zones

All times are in EDT time to prevent confusion due to time zone crossing. See the B-18725 flight status page for this flight to view local times or setup timezone preferences in your user account.

Time Position Orientation Groundspeed Altitude Reporting Facility
EDT Latitude Longitude Course Direction KTS MPH feet Rate Location/Type
10:45AM 40.6450 -73.7680 32° Northeast 157 181  Level FlightAware
10:46AM 40.6610 -73.7540 34° Northeast 157 181 900 1,920 Climbing FlightAware
10:46AM 40.6650 -73.7420 66° East 163 188 1,300 1,980 Climbing FlightAware
10:47AM 40.6670 -73.7110 85° East 164 189 2,400 1,920 Climbing FlightAware
10:47AM 40.6690 -73.6870 84° East 172 198 3,100 1,920 Climbing FlightAware
10:48AM 40.6690 -73.6550 90° East 170 196 4,200 1,680 Climbing FlightAware
10:48AM 40.6690 -73.6400 90° East 185 213 4,400 600 Climbing FlightAware
10:48AM 40.6700 -73.6070 88° East 231 266 4,600 1,080 Climbing FlightAware
10:49AM 40.6720 -73.5620 87° East 256 295 5,400 1,860 Climbing FlightAware
10:49AM 40.6820 -73.5200 73° East 267 307 6,500 2,400 Climbing FlightAware
10:49AM 40.6920 -73.5090 40° Northeast 271 312 7,000 2,640 Climbing FlightAware
10:50AM 40.7100 -73.5020 16° North 279 321 7,600 2,640 Climbing FlightAware
10:50AM 40.7480 -73.5170 343° North 292 336 9,000 2,640 Climbing FlightAware
10:51AM 40.7970 -73.5490 334° Northwest 301 346 10,700 2,100 Climbing FlightAware
10:52AM 40.8570 -73.5860 335° Northwest 337 388 12,000 1,620 Climbing FlightAware
10:52AM 40.9160 -73.6250 333° Northwest 381 438 13,000 1,560 Climbing FlightAware
10:52AM 40.9317 -73.6433 319° Northwest 395 455 13,300 2,400 Climbing FlightAware ADS-B
10:53AM 40.9639 -73.6987 308° West 410 472 14,500 2,700 Climbing FlightAware ADS-B
10:53AM 40.9987 -73.7643 305° West 421 484 16,000 2,100 Climbing FlightAware ADS-B
10:54AM 41.0243 -73.8171 303° West 426 490 16,500 720 Climbing FlightAware ADS-B
10:54AM 41.0369 -73.8572 293° West 425 489 16,500  Level FlightAware ADS-B
10:54AM 41.0411 -73.8766 286° West 424 488 16,500  Level FlightAware ADS-B
10:54AM 41.0451 -73.9034 281° West 422 486 16,500  Level FlightAware ADS-B
10:55AM 41.0511 -73.9534 279° West 424 488 16,500  Level FlightAware ADS-B
10:55AM 41.0551 -73.9852 279° West 424 488 16,500  Level FlightAware ADS-B
10:55AM 41.0606 -74.0306 279° West 426 490 16,500  Level FlightAware ADS-B
10:55AM 41.0645 -74.0638 279° West 426 490 16,500  Level FlightAware ADS-B
10:56AM 41.0696 -74.1080 279° West 425 489 16,500 720 Level FlightAware ADS-B
10:56AM 41.0740 -74.1458 279° West 427 491 16,900 2,220 Climbing FlightAware ADS-B
10:56AM 41.0833 -74.2267 279° West 433 498 18,200 2,340 Climbing FlightAware ADS-B
10:57AM 41.0853 -74.2443 279° West 434 499 18,400 1,020 Climbing FlightAware ADS-B
10:57AM 41.0948 -74.3273 279° West 439 505 18,900 480 Climbing FlightAware ADS-B
10:58AM 41.1057 -74.4219 279° West 439 505 19,000 60 Climbing FlightAware ADS-B
10:58AM 41.1149 -74.5037 279° West 436 502 19,000  Level FlightAware ADS-B
10:58AM 41.1161 -74.5138 279° West 435 501 19,000 1,140 Level FlightAware ADS-B
10:59AM 41.1241 -74.5856 278° West 441 507 19,600 1,800 Climbing FlightAware ADS-B
10:59AM 41.1334 -74.6622 279° West 450 518 20,700 2,340 Climbing FlightAware ADS-B
10:59AM 41.1388 -74.6877 286° West 452 520 21,100 2,460 Climbing FlightAware ADS-B
11:00AM 41.1500 -74.7254 292° West 454 522 21,700 2,520 Climbing FlightAware ADS-B
11:00AM 41.1809 -74.7991 299° West 457 526 23,000 2,460 Climbing FlightAware ADS-B
11:01AM 41.2145 -74.8755 300° West 464 534 24,300 2,400 Climbing FlightAware ADS-B
11:01AM 41.2542 -74.9660 300° West 474 545 25,700 2,280 Climbing FlightAware ADS-B
11:02AM 41.2892 -75.0465 300° West 478 550 26,900 2,100 Climbing FlightAware ADS-B
11:02AM 41.3228 -75.1244 300° West 486 559 27,900 2,040 Climbing FlightAware ADS-B
11:03AM 41.3638 -75.2197 300° West 490 564 29,200 2,460 Climbing FlightAware ADS-B
11:03AM 41.3983 -75.3004 300° West 482 555 30,700 2,580 Climbing FlightAware ADS-B
11:04AM 41.4471 -75.4151 300° West 475 547 32,500 2,160 Climbing FlightAware ADS-B
11:05AM 41.4787 -75.4946 298° West 474 545 33,500 1,980 Climbing FlightAware ADS-B
11:05AM 41.4974 -75.5479 295° West 473 544 34,200 1,800 Climbing FlightAware ADS-B
11:05AM 41.5128 -75.5982 292° West 474 545 34,700 1,620 Climbing FlightAware ADS-B
11:06AM 41.5358 -75.6865 289° West 471 542 35,600 1,140 Climbing FlightAware ADS-B
11:06AM 41.5618 -75.7846 290° West 471 542 36,000 300 Climbing FlightAware ADS-B
11:07AM 41.5867 -75.8741 290° West 471 542 36,000  Level FlightAware ADS-B
11:08AM 41.6160 -75.9767 291° West 471 542 36,000  Level FlightAware ADS-B
11:08AM 41.6400 -76.0605 291° West 471 542 36,000  Level FlightAware ADS-B
11:09AM 41.6643 -76.1455 291° West 472 543 36,000  Level FlightAware ADS-B
11:09AM 41.6904 -76.2373 291° West 472 543 36,000  Level FlightAware ADS-B
11:10AM 41.7152 -76.3252 291° West 471 542 36,000  Level FlightAware ADS-B
11:10AM 41.7447 -76.4309 291° West 471 542 36,000  Level FlightAware ADS-B
11:11AM 41.7710 -76.5258 290° West 469 540 36,000  Level FlightAware ADS-B
11:12AM 41.7968 -76.6190 290° West 468 539 36,000  Level FlightAware ADS-B
11:12AM 41.8190 -76.7010 290° West 467 537 36,000  Level FlightAware
11:13AM 41.8543 -76.8282 290° West 468 539 36,000  Level FlightAware ADS-B
11:13AM 41.8642 -76.8606 290° West 475 547 36,000  Level Cleveland Center
11:14AM 41.9069 -77.0256 289° West 470 541 36,000  Level Cleveland Center
11:15AM 41.9536 -77.1878 291° West 465 535 36,000  Level Cleveland Center
11:16AM 41.9958 -77.3506 289° West 459 528 36,000  Level Cleveland Center
11:17AM 42.0397 -77.5103 290° West 464 534 36,000  Level Cleveland Center
11:18AM 42.0817 -77.6733 289° West 459 528 36,000  Level Cleveland Center
11:19AM 42.1211 -77.8397 288° West 459 528 36,000  Level Cleveland Center
11:20AM 42.1644 -78.0003 290° West 459 528 36,000  Level Cleveland Center
11:21AM 42.2117 -78.1639 291° West 464 534 36,000  Level Cleveland Center
11:22AM 42.2547 -78.3306 289° West 464 534 36,000  Level Cleveland Center
11:23AM 42.2953 -78.4947 289° West 464 534 36,000  Level Cleveland Center
11:24AM 42.3400 -78.6617 290° West 464 534 36,000  Level Cleveland Center
11:25AM 42.3803 -78.8292 288° West 464 534 36,000  Level Cleveland Center
11:26AM 42.4222 -78.9997 288° West 476 548 36,000  Level Cleveland Center
11:27AM 42.4639 -79.1619 289° West 476 548 36,000  Level Cleveland Center
11:28AM 42.4972 -79.3300 285° West 469 540 36,000  Level Cleveland Center
11:29AM 42.5031 -79.5044 273° West 462 532 36,000  Level Cleveland Center
11:30AM 42.5108 -79.6847 273° West 467 537 36,000  Level Cleveland Center
11:31AM 42.5206 -79.8619 274° West 472 543 36,000  Level Cleveland Center
11:32AM 42.5256 -80.0422 272° West 482 555 36,000  Level Cleveland Center
11:38AM 42.5680 -81.0750 272° West 478 550 36,000  Level FlightAware
11:41AM 42.6220 -81.6710 277° West 473 544 36,000  Level FlightAware
11:42AM 42.6390 -81.7630 284° West 474 545 36,000  Level FlightAware
11:43AM 42.6600 -81.8870 283° West 474 545 36,000  Level FlightAware
11:43AM 42.6830 -82.0180 283° West 476 548 36,000  Level FlightAware
11:44AM 42.7060 -82.1510 283° West 476 548 36,000  Level FlightAware
11:45AM 42.7250 -82.2600 283° West 476 548 36,000  Level FlightAware
11:45AM 42.7450 -82.3800 283° West 476 548 36,000  Level FlightAware
11:46AM 42.7640 -82.4910 283° West 476 548 36,000  Level FlightAware
11:47AM 42.7890 -82.6420 283° West 477 549 36,000  Level FlightAware
11:48AM 42.8080 -82.7600 282° West 477 549 36,000  Level FlightAware
11:48AM 42.8280 -82.8800 283° West 476 548 36,000  Level FlightAware
11:49AM 42.8460 -82.9910 283° West 476 548 36,000  Level FlightAware
11:50AM 42.8680 -83.1250 283° West 475 547 36,000  Level FlightAware
11:50AM 42.8870 -83.2450 282° West 474 545 36,000  Level FlightAware
11:51AM 42.9010 -83.3290 283° West 474 545 36,000  Level FlightAware
11:52AM 42.9290 -83.5070 282° West 474 545 36,000  Level FlightAware
11:52AM 42.9450 -83.6080 282° West 474 545 36,000  Level FlightAware
11:53AM 42.9660 -83.7270 284° West 473 544 36,000  Level FlightAware
11:54AM 43.0160 -83.8720 295° West 472 543 36,000  Level FlightAware
11:55AM 43.0690 -84.0120 297° West 472 543 36,000  Level FlightAware
11:55AM 43.1110 -84.1220 298° West 473 544 36,000  Level FlightAware
11:56AM 43.1520 -84.2310 297° West 473 544 36,000  Level FlightAware
11:57AM 43.1980 -84.3510 298° West 474 545 36,000  Level FlightAware
11:58AM 43.2380 -84.4560 298° West 474 545 36,000  Level FlightAware
11:58AM 43.2820 -84.5740 297° West 475 547 36,000  Level FlightAware
11:59AM 43.3230 -84.6840 297° West 475 547 36,000  Level FlightAware
12:00PM 43.3660 -84.8000 297° West 475 547 36,000  Level FlightAware
12:00PM 43.4070 -84.9090 297° West 476 548 36,000  Level FlightAware
12:01PM 43.4530 -85.0330 297° West 477 549 36,000  Level FlightAware
12:02PM 43.4920 -85.1400 297° West 478 550 36,000  Level FlightAware
12:02PM 43.5330 -85.2500 297° West 479 551 36,000  Level FlightAware
12:03PM 43.5780 -85.3740 297° West 480 552 36,000  Level FlightAware
12:04PM 43.6180 -85.4830 297° West 482 555 36,000  Level FlightAware
12:05PM 43.6620 -85.6060 296° West 482 555 36,000  Level FlightAware
12:05PM 43.7010 -85.7140 297° West 481 554 36,000  Level FlightAware
12:06PM 43.7410 -85.8240 297° West 481 554 36,000  Level FlightAware
12:07PM 43.8000 -85.9890 296° West 482 555 36,000  Level FlightAware
12:08PM 43.8340 -86.0860 296° West 483 556 36,000  Level FlightAware
12:08PM 43.8790 -86.2130 296° West 483 556 36,000  Level FlightAware
12:09PM 43.9230 -86.3380 296° West 484 557 36,000  Level FlightAware
12:10PM 43.9560 -86.4490 292° West 482 555 36,000 600 Level FlightAware
12:10PM 43.9900 -86.5690 292° West 479 551 36,800 1,380 Climbing FlightAware
12:11PM 44.0230 -86.6940 290° West 470 541 38,000 840 Climbing FlightAware
12:12PM 44.0510 -86.8030 290° West 469 540 38,000  Level FlightAware
12:12PM 44.0810 -86.9170 290° West 466 536 38,000  Level FlightAware
12:13PM 44.1140 -87.0430 290° West 463 533 38,000  Level FlightAware
12:14PM 44.1470 -87.1720 290° West 462 532 38,000  Level FlightAware
12:15PM 44.1760 -87.2810 290° West 461 531 38,000  Level FlightAware
12:15PM 44.2040 -87.3910 290° West 459 528 38,000  Level FlightAware
12:16PM 44.2370 -87.5180 290° West 458 527 38,000  Level FlightAware
12:17PM 44.2610 -87.6130 289° West 456 525 38,000  Level FlightAware
12:17PM 44.2940 -87.7430 290° West 456 525 38,000  Level FlightAware
12:18PM 44.3220 -87.8520 290° West 454 522 38,000  Level FlightAware
12:19PM 44.3510 -87.9670 289° West 455 524 38,000  Level FlightAware
12:20PM 44.3850 -88.1020 289° West 455 524 38,000  Level FlightAware
12:20PM 44.4110 -88.2080 289° West 456 525 38,000  Level FlightAware
12:21PM 44.4400 -88.3240 289° West 458 527 38,000  Level FlightAware
12:22PM 44.4680 -88.4380 289° West 460 529 38,000  Level FlightAware
12:22PM 44.4980 -88.5570 290° West 460 529 38,000  Level FlightAware
12:23PM 44.5260 -88.6700 289° West 457 526 38,000  Level FlightAware
12:24PM 44.5580 -88.8010 289° West 456 525 38,000  Level FlightAware
12:24PM 44.5850 -88.9120 289° West 454 522 38,000  Level FlightAware
12:25PM 44.6140 -89.0330 289° West 453 521 38,000  Level FlightAware
12:26PM 44.6410 -89.1460 289° West 453 521 38,000  Level FlightAware
12:27PM 44.6720 -89.2740 289° West 453 521 38,000  Level FlightAware
12:27PM 44.6980 -89.3840 288° West 454 522 38,000  Level FlightAware
12:28PM 44.7240 -89.4950 288° West 455 524 38,000  Level FlightAware
12:29PM 44.7540 -89.6210 289° West 454 522 38,000  Level FlightAware
12:29PM 44.7790 -89.7300 288° West 455 524 38,000  Level FlightAware
12:30PM 44.8060 -89.8450 288° West 457 526 38,000  Level FlightAware
12:31PM 44.8360 -89.9750 288° West 459 528 38,000  Level FlightAware
12:31PM 44.8630 -90.0880 289° West 458 527 38,000  Level FlightAware
12:32PM 44.8890 -90.2020 288° West 458 527 38,000  Level FlightAware
12:33PM 44.9170 -90.3270 288° West 458 527 38,000  Level FlightAware
12:33PM 44.9420 -90.4360 288° West 457 526 38,000  Level FlightAware
12:34PM 44.9710 -90.5670 287° West 458 527 38,000  Level FlightAware
12:35PM 44.9970 -90.6810 288° West 457 526 38,000  Level FlightAware
12:36PM 45.0220 -90.7940 287° West 454 522 38,000  Level FlightAware
12:36PM 45.0510 -90.9210 288° West 452 520 38,000  Level FlightAware
12:37PM 45.0750 -91.0310 287° West 449 517 38,000  Level FlightAware
12:38PM 45.1030 -91.1600 287° West 447 514 38,000  Level FlightAware
12:38PM 45.1280 -91.2720 288° West 447 514 38,000  Level FlightAware
12:39PM 45.1520 -91.3840 287° West 447 514 38,000  Level FlightAware
12:40PM 45.1780 -91.5060 287° West 450 518 38,000  Level FlightAware
12:40PM 45.2030 -91.6210 287° West 452 520 38,000  Level FlightAware
12:41PM 45.2270 -91.7320 287° West 454 522 38,000  Level FlightAware
12:42PM 45.2550 -91.8650 287° West 453 521 38,000  Level FlightAware
12:43PM 45.2790 -91.9780 287° West 454 522 38,000  Level FlightAware
12:43PM 45.3050 -92.1040 286° West 455 524 38,000  Level FlightAware
12:44PM 45.3290 -92.2170 287° West 454 522 38,000  Level FlightAware
12:45PM 45.3560 -92.3500 286° West 454 522 38,000  Level FlightAware
12:45PM 45.3800 -92.4640 287° West 456 525 38,000  Level FlightAware
12:46PM 45.4030 -92.5800 286° West 456 525 38,000  Level FlightAware
12:47PM 45.4290 -92.7050 287° West 454 522 38,000  Level FlightAware
12:47PM 45.4520 -92.8180 286° West 454 522 38,000  Level FlightAware
12:48PM 45.4780 -92.9510 286° West 455 524 38,000  Level FlightAware
12:49PM 45.5020 -93.0670 286° West 455 524 38,000  Level FlightAware
12:50PM 45.5230 -93.1740 286° West 453 521 38,000  Level FlightAware
12:50PM 45.5490 -93.3130 285° West 447 514 38,000  Level FlightAware
12:51PM 45.5680 -93.4230 284° West 441 507 38,000  Level FlightAware
12:52PM 45.5900 -93.5390 285° West 441 507 38,000  Level FlightAware
12:52PM 45.6120 -93.6610 284° West 439 505 38,000  Level FlightAware
12:53PM 45.6320 -93.7720 284° West 436 502 38,000  Level FlightAware
12:54PM 45.6550 -93.9030 284° West 434 499 38,000  Level FlightAware
12:54PM 45.6750 -94.0120 285° West 432 497 38,000  Level FlightAware
12:55PM 45.6960 -94.1340 284° West 428 493 38,000  Level FlightAware
12:56PM 45.7150 -94.2410 284° West 425 489 38,000  Level FlightAware
12:57PM 45.7340 -94.3520 284° West 422 486 38,000  Level FlightAware
12:57PM 45.7560 -94.4770 284° West 421 484 38,000  Level FlightAware
12:58PM 45.7740 -94.5810 284° West 421 484 38,000  Level FlightAware
12:59PM 45.7950 -94.7030 284° West 421 484 38,000  Level FlightAware
12:59PM 45.8130 -94.8120 283° West 422 486 38,000  Level FlightAware
01:00PM 45.8340 -94.9370 284° West 423 487 38,000  Level FlightAware
01:01PM 45.8530 -95.0460 284° West 424 488 38,000  Level FlightAware
01:02PM 45.8730 -95.1650 284° West 426 490 38,000  Level FlightAware
01:02PM 45.8910 -95.2760 283° West 427 491 38,000  Level FlightAware
01:03PM 45.9110 -95.4010 283° West 427 491 38,000  Level FlightAware
01:04PM 45.9290 -95.5110 283° West 426 490 38,000  Level FlightAware
01:04PM 45.9480 -95.6230 284° West 423 487 38,000  Level FlightAware
01:05PM 45.9650 -95.7300 283° West 422 486 38,000  Level FlightAware
01:06PM 45.9840 -95.8520 283° West 420 483 38,000  Level FlightAware
01:06PM 46.0010 -95.9590 283° West 418 481 38,000  Level FlightAware
01:07PM 46.0210 -96.0840 283° West 417 480 38,000  Level FlightAware
01:08PM 46.0380 -96.1930 283° West 416 479 38,000  Level FlightAware
01:09PM 46.0560 -96.3070 283° West 414 476 38,000  Level FlightAware
01:09PM 46.0730 -96.4170 283° West 413 475 38,000  Level FlightAware
01:10PM 46.0910 -96.5400 282° West 413 475 38,000  Level FlightAware
01:11PM 46.1080 -96.6480 283° West 413 475 38,000  Level FlightAware
01:11PM 46.1240 -96.7550 282° West 412 474 38,000  Level FlightAware
01:12PM 46.1420 -96.8720 283° West 411 473 38,000  Level FlightAware
01:13PM 46.1580 -96.9790 282° West 412 474 38,000  Level FlightAware
01:13PM 46.1750 -97.1000 282° West 413 475 38,000  Level FlightAware
01:14PM 46.1890 -97.1940 282° West 413 475 38,000  Level FlightAware
01:15PM 46.2070 -97.3180 282° West 415 478 38,000  Level FlightAware
01:16PM 46.2250 -97.4370 282° West 419 482 38,000  Level FlightAware
01:16PM 46.2460 -97.5870 281° West 420 483 38,000  Level FlightAware
01:17PM 46.2620 -97.6990 282° West 406 467 38,000  Level FlightAware
01:18PM 46.2780 -97.8160 281° West 403 464 38,000  Level FlightAware
01:19PM 46.2930 -97.9200 282° West 404 465 38,000  Level FlightAware
01:19PM 46.3100 -98.0410 282° West 404 465 38,000  Level FlightAware
01:20PM 46.3210 -98.1270 281° West 404 465 38,000  Level FlightAware
01:21PM 46.3330 -98.2170 281° West 404 465 38,000  Level FlightAware
01:21PM 46.3490 -98.3300 282° West 404 465 38,000  Level FlightAware
01:22PM 46.3610 -98.4210 281° West 404 465 38,000  Level FlightAware
01:23PM 46.3730 -98.5110 281° West 404 465 38,000  Level FlightAware
01:23PM 46.3850 -98.6010 281° West 404 465 38,000  Level FlightAware
01:24PM 46.3970 -98.6920 281° West 404 465 38,000  Level FlightAware
01:25PM 46.4120 -98.8050 281° West 404 465 38,000  Level FlightAware
01:26PM 46.4240 -98.8950 281° West 404 465 38,000  Level FlightAware
01:26PM 46.4360 -98.9860 281° West 404 465 38,000  Level FlightAware
01:27PM 46.4490 -99.0770 282° West 404 465 38,000  Level FlightAware
01:28PM 46.4610 -99.1670 281° West 404 465 38,000  Level FlightAware
01:28PM 46.4760 -99.2800 281° West 404 465 38,000  Level FlightAware
01:29PM 46.4880 -99.3710 281° West 404 465 38,000  Level FlightAware
01:30PM 46.5403 -99.8078 281° West 434 499 38,000 -60 Level Minneapolis Center
01:31PM 46.5597 -99.9744 280° West 435 501 37,900  Descending Minneapolis Center
01:32PM 46.5817 -100.1539 280° West 437 503 38,000  Climbing Minneapolis Center
01:33PM 46.6056 -100.3606 280° West 434 499 38,000  Level Minneapolis Center
01:34PM 46.6258 -100.5353 280° West 438 504 38,000  Level Minneapolis Center
01:35PM 46.6458 -100.7117 279° West 441 507 38,000 -60 Level Minneapolis Center
01:36PM 46.6656 -100.8878 279° West 442 509 37,900  Descending Minneapolis Center
01:37PM 46.6853 -101.0664 279° West 443 510 38,000  Climbing Minneapolis Center
01:38PM 46.7042 -101.2439 279° West 445 512 38,000  Level Minneapolis Center
01:40PM 46.7269 -101.4581 279° West 446 513 38,000  Level Minneapolis Center
01:41PM 46.7500 -101.6711 279° West 446 513 38,000  Level Minneapolis Center
01:42PM 46.7694 -101.8483 279° West 446 513 38,000  Level Minneapolis Center
01:43PM 46.7883 -102.0256 279° West 444 511 38,000  Level Minneapolis Center
01:44PM 46.8061 -102.2036 278° West 444 511 38,000  Level Minneapolis Center
01:45PM 46.8247 -102.3797 279° West 442 509 38,000  Level Minneapolis Center
01:46PM 46.8411 -102.5608 278° West 445 512 38,000  Level Minneapolis Center
01:47PM 46.8581 -102.7411 278° West 447 514 38,000  Level Minneapolis Center
01:48PM 46.8794 -102.9581 278° West 449 517 38,000  Level Minneapolis Center
01:49PM 46.8989 -103.1394 279° West 451 519 38,000  Level Minneapolis Center
01:50PM 46.9222 -103.3575 279° West 453 521 38,000  Level Minneapolis Center
01:51PM 46.9400 -103.5417 278° West 455 524 38,000  Level Minneapolis Center
01:52PM 46.9575 -103.7278 278° West 457 526 38,000  Level Minneapolis Center
01:53PM 46.9781 -103.9328 278° West 458 527 38,000  Level Minneapolis Center
01:55PM 46.9901 -104.1805 279° West  Level FlightAware Approximate
01:56PM 47.0164 -104.3875 279° West 459 528 38,000  Level Salt Lake Center
01:57PM 47.0317 -104.5639 277° West 456 525 38,000  Level Salt Lake Center
01:58PM 47.0514 -104.7722 278° West 460 529 38,000  Level Salt Lake Center
01:59PM 47.0675 -104.9483 278° West 459 528 38,000  Level Salt Lake Center
02:00PM 47.0831 -105.1258 277° West 459 528 38,000  Level Salt Lake Center
02:01PM 47.1006 -105.3325 277° West 459 528 38,000  Level Salt Lake Center
02:02PM 47.1164 -105.5094 278° West 458 527 38,000  Level Salt Lake Center
02:03PM 47.1325 -105.7167 277° West 458 527 38,000  Level Salt Lake Center
02:04PM 47.1475 -105.8964 277° West 460 529 38,000  Level Salt Lake Center
02:05PM 47.1650 -106.1053 277° West 461 531 38,000  Level Salt Lake Center
02:06PM 47.1792 -106.2828 277° West 461 531 38,000  Level Salt Lake Center
02:07PM 47.1981 -106.5019 277° West 466 536 38,000  Level Salt Lake Center
02:08PM 47.2108 -106.6789 276° West 463 533 38,000  Level Salt Lake Center
02:09PM 47.2231 -106.8567 276° West 458 527 38,000  Level Salt Lake Center
02:10PM 47.2383 -107.0639 276° West 456 525 38,000  Level Salt Lake Center
02:11PM 47.2503 -107.2422 276° West 457 526 38,000  Level Salt Lake Center
02:12PM 47.2633 -107.4517 275° West 459 528 38,000  Level Salt Lake Center
02:13PM 47.2758 -107.6303 276° West 460 529 38,000  Level Salt Lake Center
02:14PM 47.2881 -107.8394 275° West 460 529 38,000  Level Salt Lake Center
02:15PM 47.2986 -108.0200 275° West 461 531 38,000  Level Salt Lake Center
02:16PM 47.3117 -108.2300 275° West 462 532 38,000  Level Salt Lake Center
02:17PM 47.3197 -108.3872 274° West 461 531 38,000 -60 Level Salt Lake Center
02:18PM 47.3306 -108.5756 275° West 461 531 37,900 -60 Descending Salt Lake Center
02:19PM 47.3428 -108.8006 275° West 460 529 37,900  Level Salt Lake Center
02:20PM 47.3514 -108.9878 274° West 459 528 37,900  Level Salt Lake Center
02:21PM 47.3606 -109.1736 274° West 457 526 37,900  Level Salt Lake Center
02:22PM 47.3703 -109.3606 274° West 457 526 38,000  Climbing Salt Lake Center
02:23PM 47.3789 -109.5469 274° West 458 527 37,900  Descending Salt Lake Center
02:24PM 47.3878 -109.7328 274° West 456 525 38,000  Climbing Salt Lake Center
02:25PM 47.3958 -109.9161 274° West 449 517 37,900 -60 Descending Salt Lake Center
02:26PM 47.4044 -110.1386 273° West 452 520 37,900  Level Salt Lake Center
02:28PM 47.4122 -110.3219 274° West 451 519 38,000  Climbing Salt Lake Center
02:29PM 47.4194 -110.5050 273° West 449 517 38,000  Level Salt Lake Center
02:30PM 47.4267 -110.6894 273° West 449 517 38,000 -60 Level Salt Lake Center
02:31PM 47.4328 -110.8736 273° West 450 518 37,900 -60 Descending Salt Lake Center
02:32PM 47.4392 -111.0589 273° West 449 517 37,900  Level Salt Lake Center
02:33PM 47.4453 -111.2450 273° West 448 516 37,900  Level Salt Lake Center
02:34PM 47.4506 -111.4322 272° West 449 517 38,000  Climbing Salt Lake Center
02:35PM 47.4547 -111.6197 272° West 450 518 37,900 -60 Descending Salt Lake Center
02:36PM 47.4564 -111.8039 271° West 448 516 37,900  Level Salt Lake Center
02:37PM 47.4597 -111.9889 272° West 450 518 37,900  Level Salt Lake Center
02:38PM 47.4628 -112.2122 271° West 453 521 37,900  Level Salt Lake Center
02:39PM 47.4653 -112.3969 271° West 451 519 38,000  Climbing Salt Lake Center
02:40PM 47.4667 -112.5833 271° West 455 524 37,900 -60 Descending Salt Lake Center
02:41PM 47.4692 -112.7675 271° West 451 519 37,900  Level Salt Lake Center
02:42PM 47.4700 -112.9511 270° West 452 520 37,900  Level Salt Lake Center
02:43PM 47.4717 -113.1375 271° West 454 522 37,900  Level Salt Lake Center
02:44PM 47.4722 -113.3228 270° West 452 520 37,900  Level Salt Lake Center
02:45PM 47.4725 -113.5058 270° West 447 514 38,000  Climbing Salt Lake Center
02:46PM 47.4728 -113.7250 270° West 444 511 38,000 -60 Level Salt Lake Center
02:47PM 47.4722 -113.9050 270° West 439 505 37,900 -60 Descending Salt Lake Center
02:48PM 47.4714 -114.0853 270° West 438 504 37,900  Level Salt Lake Center
02:49PM 47.4717 -114.2647 270° West 436 502 38,000  Climbing Salt Lake Center
02:50PM 47.4706 -114.4428 270° West 433 498 37,900 -60 Descending Salt Lake Center
02:51PM 47.4689 -114.6217 269° West 432 497 37,900  Level Salt Lake Center
02:52PM 47.4672 -114.7986 269° West 430 495 38,000  Climbing Salt Lake Center
02:53PM 47.4664 -115.0103 270° West 427 491 37,900 -60 Descending Seattle Center
02:54PM 47.4633 -115.1858 269° West 426 490 37,900  Level Seattle Center
02:55PM 47.4622 -115.3597 270° West 424 488 37,900  Level Seattle Center
02:56PM 47.4589 -115.5347 268° West 427 491 37,900  Level Seattle Center
02:57PM 47.4583 -115.7086 270° West 425 489 38,000  Climbing Seattle Center
02:58PM 47.4703 -115.8697 276° West 419 482 37,900 -60 Descending Seattle Center
02:59PM 47.4814 -116.0397 276° West 419 482 37,900  Level Seattle Center
03:00PM 47.4928 -116.2472 275° West 422 486 37,900  Level Seattle Center
03:01PM 47.5025 -116.4186 275° West 419 482 37,900  Level Seattle Center
03:02PM 47.5125 -116.5914 275° West 422 486 37,900  Level Seattle Center
03:03PM 47.5219 -116.7667 275° West 427 491 38,000  Climbing Seattle Center
03:04PM 47.5308 -116.9414 274° West 425 489 38,000 -60 Level Seattle Center
03:05PM 47.5419 -117.1300 275° West 432 497 37,900 -60 Descending Seattle Center
03:06PM 47.5494 -117.3064 274° West 426 490 37,900  Level Seattle Center
03:08PM 47.5583 -117.4803 274° West 422 486 37,900  Level Seattle Center
03:13PM 47.6390 -118.4170 274° West 413 475 38,000  Climbing FlightAware
03:14PM 47.6490 -118.5290 278° West 413 475 38,000  Level FlightAware
03:14PM 47.6590 -118.6430 277° West 412 474 38,000  Level FlightAware
03:15PM 47.6700 -118.7700 277° West 412 474 38,000  Level FlightAware
03:16PM 47.6800 -118.8820 278° West 411 473 38,000  Level FlightAware
03:16PM 47.6890 -118.9920 277° West 411 473 38,000  Level FlightAware
03:17PM 47.7000 -119.1150 278° West 411 473 38,000  Level FlightAware
03:18PM 47.7090 -119.2290 277° West 411 473 38,000  Level FlightAware
03:19PM 47.7190 -119.3520 277° West 411 473 38,000  Level FlightAware
03:19PM 47.7280 -119.4650 277° West 408 470 38,000  Level FlightAware
03:20PM 47.7390 -119.5930 277° West 407 468 38,000  Level FlightAware
03:21PM 47.7470 -119.7030 276° West 407 468 38,000  Level FlightAware
03:21PM 47.7560 -119.8160 277° West 407 468 38,000  Level FlightAware
03:22PM 47.7660 -119.9390 277° West 407 468 38,000  Level FlightAware
03:23PM 47.7740 -120.0470 276° West 406 467 38,000  Level FlightAware
03:23PM 47.7820 -120.1580 276° West 407 468 38,000 -180 Level FlightAware
03:24PM 47.7920 -120.2870 277° West 411 473 37,800 -1,380 Descending FlightAware
03:25PM 47.8000 -120.3940 276° West 412 474 36,100 -3,000 Descending FlightAware
03:26PM 47.8090 -120.5240 276° West 418 481 33,600 -3,000 Descending FlightAware
03:26PM 47.8170 -120.6370 276° West 411 473 31,900 -2,520 Descending FlightAware
03:27PM 47.8240 -120.7420 276° West 405 466 30,300 -2,520 Descending FlightAware
03:28PM 47.8320 -120.8600 276° West 401 461 28,400 -2,580 Descending FlightAware
03:29PM 47.8430 -121.0120 276° West 398 458 26,000 -2,460 Descending FlightAware
03:29PM 47.8500 -121.1240 275° West 394 453 24,300 -2,340 Descending FlightAware
03:30PM 47.8590 -121.2590 276° West 389 448 22,300 -2,400 Descending FlightAware
03:31PM 47.8670 -121.3890 275° West 377 434 20,500 -1,740 Descending FlightAware
03:32PM 47.8740 -121.5000 275° West 350 403 19,700 -1,560 Descending FlightAware
03:32PM 47.8800 -121.5940 275° West 347 399 18,300 -2,100 Descending FlightAware
03:33PM 47.8770 -121.7030 268° West 359 413 16,800 -1,680 Descending FlightAware
03:34PM 47.8350 -121.7750 229° Southwest 355 409 16,000 -1,200 Descending FlightAware
03:35PM 47.7740 -121.8570 222° Southwest 340 391 15,000 -1,440 Descending FlightAware
03:35PM 47.7270 -121.9190 222° Southwest 329 379 13,900 -1,620 Descending FlightAware
03:36PM 47.6820 -121.9790 222° Southwest 330 380 12,900 -1,500 Descending FlightAware
03:37PM 47.6320 -122.0470 223° Southwest 327 376 11,800 -1,500 Descending FlightAware
03:37PM 47.5870 -122.1070 222° Southwest 322 371 10,800 -1,680 Descending FlightAware
03:38PM 47.5500 -122.1430 213° Southwest 317 365 9,900 -1,680 Descending FlightAware
03:38PM 47.5370 -122.1450 186° South 324 373 9,700 -600 Descending FlightAware
03:39PM 47.4920 -122.1420 177° South 303 349 9,500 -180 Descending FlightAware
03:39PM 47.4410 -122.1380 177° South 289 333 9,500  Level FlightAware
03:40PM 47.4070 -122.1360 178° South 289 333 9,500  Level FlightAware
03:40PM 47.3730 -122.1330 177° South 289 333 9,500  Level FlightAware
03:41PM 47.3500 -122.1310 177° South 289 333 9,500 -2,580 Level FlightAware
03:41PM 47.2947 -122.1389 177° South 252 290 7,100 -2,220 Descending Seattle Center
03:42PM 47.2317 -122.1606 193° South 236 272 5,900 -1,140 Descending Seattle Center
03:43PM 47.2250 -122.2428 263° West 207 238 4,900 -1,140 Descending Seattle Center
03:44PM 47.2614 -122.2994 313° West 193 222 3,700 -1,260 Descending Seattle Center
03:45PM 47.3103 -122.3122 350° North 185 213 2,400 -840 Descending Seattle Center
03:46PM 47.3558 -122.3119 360° North 167 192 2,100 -540 Descending Seattle Center
03:47PM 47.3950 -122.3117 360° North 145 167 1,300 -840 Descending Seattle Center
03:48PM 47.4408 -122.3119 360° North 142 163 400 -480 Descending Seattle Center
03:49PM 47.4778 -122.3122 360° North 143 165 400  Level Seattle Center